Time;durP1;ratioP1;P1;durP2;ratioP2;P2;SDS_P1;SDS_P2;PMS_P1;PMS_P2;Temp;Humidity;BMP_temperature;BMP_pressure;BME280_temperature;BME280_humidity;BME280_pressure;Samples;Min_cycle;Max_cycle;Signal;HPM_P1;HPM_P2
2023/03/13 00:01:22;;;;;;;;;;;;;;;3.34;51.92;96784.94;105091;1260;101781;-74
2023/03/13 00:03:54;;;;;;;;;;;;;;;3.33;52.11;96788.00;105318;1265;100415;-77
2023/03/13 00:06:24;;;;;;;;;;;;;;;3.34;52.22;96785.64;105116;1251;96739;-76
2023/03/13 00:08:52;;;;;;;;;;;;;;;3.34;52.43;96789.16;104958;1251;97477;-74
2023/03/13 00:11:20;;;;;;;;;;;;;;;3.34;52.40;96784.13;105196;1259;102085;-76
2023/03/13 00:13:54;;;;;;;;;;;;;;;3.35;52.51;96786.65;105142;1264;101826;-75
2023/03/13 00:16:22;;;;;;;;;;;;;;;3.36;52.59;96787.08;105145;1256;100469;-74
2023/03/13 00:18:52;;;;;;;;;;;;;;;3.35;53.00;96782.05;105057;1266;97746;-75
2023/03/13 00:21:21;;;;;;;;;;;;;;;3.35;53.21;96785.28;105164;1256;97483;-74
2023/03/13 00:23:52;;;;;;;;;;;;;;;3.36;53.24;96789.58;105171;1257;102978;-74
2023/03/13 00:26:23;;;;;;;;;;;;;;;3.38;53.46;96795.96;105412;1274;101738;-77
2023/03/13 00:28:56;;;;;;;;;;;;;;;3.37;54.04;96801.55;105156;1257;100576;-77
2023/03/13 00:31:40;;;;;;;;;;;;;;;3.37;54.48;96798.34;105221;1267;96641;-75
2023/03/13 00:34:09;;;;;;;;;;;;;;;3.37;54.98;96796.15;105200;1257;97841;-76
2023/03/13 00:36:37;;;;;;;;;;;;;;;3.35;55.30;96793.42;105187;1257;102447;-76
2023/03/13 00:39:06;;;;;;;;;;;;;;;3.34;55.69;96787.92;105126;1258;101885;-74
2023/03/13 00:41:36;;;;;;;;;;;;;;;3.33;55.88;96785.73;105121;1251;107476;-74
2023/03/13 00:44:07;;;;;;;;;;;;;;;3.32;56.35;96780.97;105150;1264;96554;-75
2023/03/13 00:46:36;;;;;;;;;;;;;;;3.32;56.64;96774.48;105188;1257;96801;-76
2023/03/13 00:49:05;;;;;;;;;;;;;;;3.31;56.80;96779.75;105196;1261;102162;-76
2023/03/13 00:51:33;;;;;;;;;;;;;;;3.28;56.80;96779.70;105128;1264;101915;-74
2023/03/13 00:54:02;;;;;;;;;;;;;;;3.27;57.07;96769.67;105165;1257;100575;-74
2023/03/13 00:56:30;;;;;;;;;;;;;;;3.28;57.45;96765.09;105143;1257;96796;-75
2023/03/13 00:58:59;;;;;;;;;;;;;;;3.28;57.48;96765.30;105012;1256;97467;-74
2023/03/13 01:01:31;;;;;;;;;;;;;;;3.29;57.46;96759.85;105249;1251;101532;-74
2023/03/13 01:04:00;;;;;;;;;;;;;;;3.26;57.92;96758.54;105170;1251;110574;-75
2023/03/13 01:06:30;;;;;;;;;;;;;;;3.24;57.94;96757.05;105094;1260;100544;-74
2023/03/13 01:09:01;;;;;;;;;;;;;;;3.24;58.06;96759.11;105040;1251;97223;-74
2023/03/13 01:11:32;;;;;;;;;;;;;;;3.27;58.15;96756.13;105334;1254;96647;-74
2023/03/13 01:14:06;;;;;;;;;;;;;;;3.29;58.27;96748.61;105198;1257;101942;-74
2023/03/13 01:16:41;;;;;;;;;;;;;;;3.31;58.04;96744.73;105292;1257;101914;-75
2023/03/13 01:19:15;;;;;;;;;;;;;;;3.30;58.57;96738.58;105162;1266;100017;-75
2023/03/13 01:21:44;;;;;;;;;;;;;;;3.27;58.58;96739.63;105132;1258;97876;-75
2023/03/13 01:24:13;;;;;;;;;;;;;;;3.28;58.61;96738.66;105126;1254;96669;-75
2023/03/13 01:26:41;;;;;;;;;;;;;;;3.29;58.66;96738.55;105189;1258;101519;-76
2023/03/13 01:29:09;;;;;;;;;;;;;;;3.30;58.56;96740.54;105159;1251;101689;-75
2023/03/13 01:31:37;;;;;;;;;;;;;;;3.31;58.60;96740.83;105255;1257;100483;-76
2023/03/13 01:34:06;;;;;;;;;;;;;;;3.32;58.84;96744.39;105045;1259;96830;-76
2023/03/13 01:36:44;;;;;;;;;;;;;;;3.31;59.09;96742.77;105166;1266;96585;-74
2023/03/13 01:39:14;;;;;;;;;;;;;;;3.30;59.06;96737.20;104933;1269;102771;-75
2023/03/13 01:41:42;;;;;;;;;;;;;;;3.30;59.10;96738.54;105138;1257;102459;-75
2023/03/13 01:44:20;;;;;;;;;;;;;;;3.31;59.16;96739.13;105153;1257;100556;-75
2023/03/13 01:46:48;;;;;;;;;;;;;;;3.28;59.34;96742.72;105204;1261;96986;-74
2023/03/13 01:49:21;;;;;;;;;;;;;;;3.25;59.64;96743.77;105058;1260;96689;-75
2023/03/13 01:51:58;;;;;;;;;;;;;;;3.23;59.67;96741.12;105294;1256;103093;-74
2023/03/13 01:54:31;;;;;;;;;;;;;;;3.20;59.94;96742.08;105226;1257;100906;-76
2023/03/13 01:57:06;;;;;;;;;;;;;;;3.19;59.91;96741.05;105150;1251;100312;-74
2023/03/13 01:59:38;;;;;;;;;;;;;;;3.21;60.02;96741.20;105144;1274;97536;-74
2023/03/13 02:02:10;;;;;;;;;;;;;;;3.20;60.08;96741.64;105185;1257;96611;-74
2023/03/13 02:04:44;;;;;;;;;;;;;;;3.18;60.22;96741.69;105269;1267;102523;-74
2023/03/13 02:07:17;;;;;;;;;;;;;;;3.20;60.21;96751.48;105141;1254;101862;-75
2023/03/13 02:09:50;;;;;;;;;;;;;;;3.20;60.47;96757.61;105199;1264;99541;-74
2023/03/13 02:12:31;;;;;;;;;;;;;;;3.22;60.44;96760.80;105315;1258;96605;-78
2023/03/13 02:15:00;;;;;;;;;;;;;;;3.24;60.25;96770.65;105194;1264;96699;-75
2023/03/13 02:17:29;;;;;;;;;;;;;;;3.28;60.40;96775.11;105169;1257;102989;-74
2023/03/13 02:19:57;;;;;;;;;;;;;;;3.32;60.36;96778.23;105038;1270;101191;-76
2023/03/13 02:22:25;;;;;;;;;;;;;;;3.35;60.34;96778.39;105154;1264;100392;-76
2023/03/13 02:24:54;;;;;;;;;;;;;;;3.36;60.34;96783.71;105193;1257;97454;-75
2023/03/13 02:27:22;;;;;;;;;;;;;;;3.37;60.46;96783.08;105150;1260;97339;-76
2023/03/13 02:29:55;;;;;;;;;;;;;;;3.39;60.54;96779.64;104960;1257;101539;-74
2023/03/13 02:32:23;;;;;;;;;;;;;;;3.41;60.58;96780.11;105147;1251;101485;-77
2023/03/13 02:34:54;;;;;;;;;;;;;;;3.41;60.68;96779.88;105091;1257;100184;-75
2023/03/13 02:37:31;;;;;;;;;;;;;;;3.42;60.64;96787.60;105199;1256;96568;-76
2023/03/13 02:40:08;;;;;;;;;;;;;;;3.44;60.51;96786.56;105145;1257;96633;-75
2023/03/13 02:42:41;;;;;;;;;;;;;;;3.44;60.63;96783.09;105190;1256;102826;-75
2023/03/13 02:45:17;;;;;;;;;;;;;;;3.45;60.70;96774.44;105249;1256;101711;-76
2023/03/13 02:47:49;;;;;;;;;;;;;;;3.47;60.68;96771.42;104987;1251;99407;-75
2023/03/13 02:50:27;;;;;;;;;;;;;;;3.49;60.68;96781.66;105150;1264;97266;-76
2023/03/13 02:53:05;;;;;;;;;;;;;;;3.52;60.52;96781.52;105218;1251;96570;-75
2023/03/13 02:55:45;;;;;;;;;;;;;;;3.54;60.78;96781.05;105178;1257;100912;-75
2023/03/13 02:58:14;;;;;;;;;;;;;;;3.56;60.86;96790.54;105244;1252;101476;-76
2023/03/13 03:00:44;;;;;;;;;;;;;;;3.58;60.91;96785.31;105157;1257;100712;-77
2023/03/13 03:03:15;;;;;;;;;;;;;;;3.60;61.04;96785.64;104758;1258;97562;-76
2023/03/13 03:05:43;;;;;;;;;;;;;;;3.61;61.25;96790.45;105342;1251;96684;-77
2023/03/13 03:08:11;;;;;;;;;;;;;;;3.64;61.21;96800.12;105371;1251;111335;-75
2023/03/13 03:10:39;;;;;;;;;;;;;;;3.65;61.32;96806.95;105425;1257;101799;-75
2023/03/13 03:13:06;;;;;;;;;;;;;;;3.68;61.36;96808.23;105381;1251;100183;-75
2023/03/13 03:15:34;;;;;;;;;;;;;;;3.69;61.36;96809.28;105162;1261;96758;-75
2023/03/13 03:18:02;;;;;;;;;;;;;;;3.70;61.42;96814.27;105131;1274;96472;-77
2023/03/13 03:20:31;;;;;;;;;;;;;;;3.73;61.54;96818.84;105151;1258;102515;-78
2023/03/13 03:22:59;;;;;;;;;;;;;;;3.75;61.58;96817.30;105208;1256;102158;-78
2023/03/13 03:25:27;;;;;;;;;;;;;;;3.76;61.63;96822.48;105133;1255;100420;-76
2023/03/13 03:27:55;;;;;;;;;;;;;;;3.76;61.73;96829.59;104998;1256;97878;-75
2023/03/13 03:30:23;;;;;;;;;;;;;;;3.77;61.67;96828.41;105132;1256;96603;-77
2023/03/13 03:32:51;;;;;;;;;;;;;;;3.79;61.72;96824.09;105250;1257;102984;-76
2023/03/13 03:35:19;;;;;;;;;;;;;;;3.80;61.70;96822.38;105168;1251;101838;-75
2023/03/13 03:37:46;;;;;;;;;;;;;;;3.81;61.69;96818.34;105222;1257;100443;-75
2023/03/13 03:40:14;;;;;;;;;;;;;;;3.81;61.71;96814.27;105268;1257;97186;-77
2023/03/13 03:42:42;;;;;;;;;;;;;;;3.81;61.86;96812.86;105116;1257;97183;-77
2023/03/13 03:45:11;;;;;;;;;;;;;;;3.81;62.03;96816.56;105064;1252;102705;-78
2023/03/13 03:47:39;;;;;;;;;;;;;;;3.82;62.20;96826.80;105210;1257;102647;-75
2023/03/13 03:50:09;;;;;;;;;;;;;;;3.82;62.29;96821.06;105150;1256;100321;-76
2023/03/13 03:52:38;;;;;;;;;;;;;;;3.83;62.34;96817.25;105321;1261;96533;-76
2023/03/13 03:55:07;;;;;;;;;;;;;;;3.84;62.40;96816.73;105182;1257;96590;-75
2023/03/13 03:57:35;;;;;;;;;;;;;;;3.85;62.31;96815.90;105170;1256;111435;-75
2023/03/13 04:00:04;;;;;;;;;;;;;;;3.86;62.53;96814.92;105236;1267;101976;-77
2023/03/13 04:02:32;;;;;;;;;;;;;;;3.87;62.49;96817.96;105434;1257;100569;-78
2023/03/13 04:05:00;;;;;;;;;;;;;;;3.87;62.71;96819.36;105311;1254;96724;-75
2023/03/13 04:07:28;;;;;;;;;;;;;;;3.87;63.08;96821.05;105259;1251;97353;-76
2023/03/13 04:09:55;;;;;;;;;;;;;;;3.87;63.11;96823.34;105300;1257;102752;-76
2023/03/13 04:12:23;;;;;;;;;;;;;;;3.87;63.07;96822.89;105220;1268;102156;-76
2023/03/13 04:14:51;;;;;;;;;;;;;;;3.87;63.29;96821.86;105287;1251;100686;-76
2023/03/13 04:17:19;;;;;;;;;;;;;;;3.87;63.38;96819.19;105219;1255;96561;-76
2023/03/13 04:19:47;;;;;;;;;;;;;;;3.87;63.76;96821.82;105108;1257;96478;-76
2023/03/13 04:22:15;;;;;;;;;;;;;;;3.87;63.73;96824.17;105149;1256;102984;-76
2023/03/13 04:24:43;;;;;;;;;;;;;;;3.88;63.83;96822.27;105141;1251;102133;-75
2023/03/13 04:27:11;;;;;;;;;;;;;;;3.88;63.91;96820.88;105133;1255;98868;-77
2023/03/13 04:29:39;;;;;;;;;;;;;;;3.88;64.07;96812.67;105128;1265;97788;-75
2023/03/13 04:32:07;;;;;;;;;;;;;;;3.88;64.03;96809.44;105116;1257;97342;-75
2023/03/13 04:34:35;;;;;;;;;;;;;;;3.90;64.29;96819.23;105162;1255;102673;-75
2023/03/13 04:37:03;;;;;;;;;;;;;;;3.91;64.36;96818.59;105148;1251;100620;-76
2023/03/13 04:39:31;;;;;;;;;;;;;;;3.91;64.55;96820.33;105068;1258;100675;-77
2023/03/13 04:41:59;;;;;;;;;;;;;;;3.92;64.52;96814.63;105167;1257;96903;-77
2023/03/13 04:44:27;;;;;;;;;;;;;;;3.93;64.76;96814.33;105189;1261;97967;-75
2023/03/13 04:46:55;;;;;;;;;;;;;;;3.95;64.83;96816.65;105251;1251;102672;-75
2023/03/13 04:49:23;;;;;;;;;;;;;;;3.96;64.81;96819.52;105134;1258;101839;-74
2023/03/13 04:51:51;;;;;;;;;;;;;;;3.97;64.95;96823.79;105134;1258;100237;-76
2023/03/13 04:54:19;;;;;;;;;;;;;;;3.98;64.93;96832.95;105087;1270;96551;-75
2023/03/13 04:56:47;;;;;;;;;;;;;;;4.00;65.01;96833.30;105175;1264;96552;-76
2023/03/13 04:59:15;;;;;;;;;;;;;;;4.03;65.09;96831.17;105077;1257;102833;-77
2023/03/13 05:01:44;;;;;;;;;;;;;;;4.06;65.09;96830.15;105112;1256;101901;-75
2023/03/13 05:04:12;;;;;;;;;;;;;;;4.07;65.20;96827.30;104867;1259;98992;-77
2023/03/13 05:06:40;;;;;;;;;;;;;;;4.09;65.22;96820.29;105141;1256;97827;-75
2023/03/13 05:09:08;;;;;;;;;;;;;;;4.11;65.28;96822.52;105206;1264;97875;-76
2023/03/13 05:11:36;;;;;;;;;;;;;;;4.13;65.22;96825.92;105235;1270;102630;-75
2023/03/13 05:14:04;;;;;;;;;;;;;;;4.14;64.98;96823.46;105390;1257;100075;-76
2023/03/13 05:16:32;;;;;;;;;;;;;;;4.15;65.12;96819.95;105157;1259;100595;-75
2023/03/13 05:19:00;;;;;;;;;;;;;;;4.16;65.35;96819.80;105112;1256;97890;-75
2023/03/13 05:21:28;;;;;;;;;;;;;;;4.18;65.26;96820.52;105278;1256;96583;-80
2023/03/13 05:23:56;;;;;;;;;;;;;;;4.18;65.27;96822.05;105140;1261;102875;-75
2023/03/13 05:26:24;;;;;;;;;;;;;;;4.19;65.41;96820.20;105309;1258;101673;-75
2023/03/13 05:28:52;;;;;;;;;;;;;;;4.19;65.45;96822.98;105316;1257;100496;-75
2023/03/13 05:31:20;;;;;;;;;;;;;;;4.21;65.31;96816.39;105233;1266;96590;-75
2023/03/13 05:33:48;;;;;;;;;;;;;;;4.21;65.55;96814.71;105178;1264;96655;-76
2023/03/13 05:36:16;;;;;;;;;;;;;;;4.23;65.60;96822.39;105337;1255;102732;-75
2023/03/13 05:38:44;;;;;;;;;;;;;;;4.24;65.61;96825.98;105262;1251;102024;-75
2023/03/13 05:41:12;;;;;;;;;;;;;;;4.25;65.65;96822.98;105214;1261;100507;-78
2023/03/13 05:43:40;;;;;;;;;;;;;;;4.27;65.77;96822.04;105268;1258;97448;-77
2023/03/13 05:46:08;;;;;;;;;;;;;;;4.28;65.81;96820.52;105216;1264;97851;-76
2023/03/13 05:48:36;;;;;;;;;;;;;;;4.30;65.91;96820.11;105351;1265;102654;-78
2023/03/13 05:51:04;;;;;;;;;;;;;;;4.32;65.84;96816.08;105126;1256;101894;-75
2023/03/13 05:53:32;;;;;;;;;;;;;;;4.35;66.00;96816.96;105126;1256;100688;-77
2023/03/13 05:56:00;;;;;;;;;;;;;;;4.38;66.07;96815.72;104962;1255;97845;-75
2023/03/13 05:58:28;;;;;;;;;;;;;;;4.40;66.06;96818.34;104907;1260;98564;-75
2023/03/13 06:00:56;;;;;;;;;;;;;;;4.43;66.12;96816.13;104945;1259;102831;-74
2023/03/13 06:03:24;;;;;;;;;;;;;;;4.46;66.06;96815.05;105150;1256;101989;-75
2023/03/13 06:05:57;;;;;;;;;;;;;;;4.48;66.09;96809.79;105196;1255;100646;-75
2023/03/13 06:08:26;;;;;;;;;;;;;;;4.51;65.89;96806.89;105318;1255;96569;-75
2023/03/13 06:10:54;;;;;;;;;;;;;;;4.54;66.01;96808.32;105207;1251;96637;-75
2023/03/13 06:13:22;;;;;;;;;;;;;;;4.58;66.15;96808.45;105339;1255;103005;-75
2023/03/13 06:15:51;;;;;;;;;;;;;;;4.60;66.31;96804.42;105227;1257;100559;-75
2023/03/13 06:18:19;;;;;;;;;;;;;;;4.63;66.14;96809.48;105216;1256;100877;-75
2023/03/13 06:20:48;;;;;;;;;;;;;;;4.67;66.10;96813.11;105285;1273;97772;-76
2023/03/13 06:23:17;;;;;;;;;;;;;;;4.72;66.12;96807.53;105075;1259;97557;-75
2023/03/13 06:25:47;;;;;;;;;;;;;;;4.77;66.06;96808.90;105178;1251;101124;-75
2023/03/13 06:28:16;;;;;;;;;;;;;;;4.82;66.10;96805.65;105402;1254;101820;-75
2023/03/13 06:30:44;;;;;;;;;;;;;;;4.86;66.07;96805.85;105151;1251;100938;-78
2023/03/13 06:33:12;;;;;;;;;;;;;;;4.91;66.23;96805.92;105184;1251;96596;-75
2023/03/13 06:35:41;;;;;;;;;;;;;;;4.96;66.27;96809.95;105113;1267;96558;-77
2023/03/13 06:38:10;;;;;;;;;;;;;;;5.00;66.16;96810.24;104977;1251;101406;-75
2023/03/13 06:40:38;;;;;;;;;;;;;;;5.05;66.28;96809.52;105097;1251;102256;-79
2023/03/13 06:43:06;;;;;;;;;;;;;;;5.09;66.22;96805.73;104993;1257;100537;-74
2023/03/13 06:45:35;;;;;;;;;;;;;;;5.15;66.22;96806.48;104969;1260;97153;-75
2023/03/13 06:48:04;;;;;;;;;;;;;;;5.20;66.23;96804.51;105211;1256;97861;-75
2023/03/13 06:50:32;;;;;;;;;;;;;;;5.27;66.28;96804.98;105218;1251;102258;-75
2023/03/13 06:53:00;;;;;;;;;;;;;;;5.33;66.37;96800.08;105338;1256;100257;-75
2023/03/13 06:55:28;;;;;;;;;;;;;;;5.39;66.28;96800.64;105399;1256;100377;-74
2023/03/13 06:57:56;;;;;;;;;;;;;;;5.47;66.26;96796.23;105030;1258;96785;-75
2023/03/13 07:00:24;;;;;;;;;;;;;;;5.53;66.19;96797.09;105081;1268;97499;-74
2023/03/13 07:02:53;;;;;;;;;;;;;;;5.57;66.33;96794.17;104988;1259;102922;-77
2023/03/13 07:05:21;;;;;;;;;;;;;;;5.65;66.32;96791.31;105206;1255;100419;-75
2023/03/13 07:07:49;;;;;;;;;;;;;;;5.77;66.19;96783.48;105306;1254;100127;-74
2023/03/13 07:10:17;;;;;;;;;;;;;;;5.93;66.10;96782.42;105073;1267;96665;-77
2023/03/13 07:12:45;;;;;;;;;;;;;;;6.07;66.16;96776.65;105404;1257;96664;-75
2023/03/13 07:15:13;;;;;;;;;;;;;;;6.21;66.03;96771.23;105296;1255;103616;-76
2023/03/13 07:17:41;;;;;;;;;;;;;;;6.36;66.00;96767.38;105306;1256;102096;-76
2023/03/13 07:20:10;;;;;;;;;;;;;;;6.51;65.89;96761.82;105171;1258;100452;-75
2023/03/13 07:22:38;;;;;;;;;;;;;;;6.64;65.79;96756.30;104999;1251;97212;-75
2023/03/13 07:25:06;;;;;;;;;;;;;;;6.78;65.67;96754.96;105266;1257;97871;-77
2023/03/13 07:27:34;;;;;;;;;;;;;;;6.95;65.72;96752.35;105199;1256;102805;-75
2023/03/13 07:30:02;;;;;;;;;;;;;;;7.11;65.47;96748.73;105350;1256;102270;-78
2023/03/13 07:32:31;;;;;;;;;;;;;;;7.26;65.30;96753.00;105106;1264;100229;-75
2023/03/13 07:35:02;;;;;;;;;;;;;;;7.40;65.16;96751.22;105121;1257;97953;-75
2023/03/13 07:37:30;;;;;;;;;;;;;;;7.56;65.04;96755.27;105216;1256;96574;-78
2023/03/13 07:39:58;;;;;;;;;;;;;;;7.70;64.83;96760.11;105420;1257;102378;-75
2023/03/13 07:42:26;;;;;;;;;;;;;;;7.78;64.67;96762.13;105294;1256;101783;-76
2023/03/13 07:44:54;;;;;;;;;;;;;;;7.86;64.33;96760.50;105266;1251;100456;-76
2023/03/13 07:47:23;;;;;;;;;;;;;;;7.93;64.15;96761.91;105161;1256;96891;-75
2023/03/13 07:49:52;;;;;;;;;;;;;;;8.07;64.09;96757.80;105122;1264;96580;-77
2023/03/13 07:52:21;;;;;;;;;;;;;;;8.22;63.79;96750.85;104952;1259;101170;-76
2023/03/13 07:54:49;;;;;;;;;;;;;;;8.38;63.52;96749.06;105257;1256;102288;-77
2023/03/13 07:57:17;;;;;;;;;;;;;;;8.54;63.15;96747.20;105218;1256;100333;-80
2023/03/13 07:59:45;;;;;;;;;;;;;;;8.62;62.69;96750.55;104914;1256;218429;-78
2023/03/13 08:02:15;;;;;;;;;;;;;;;8.74;62.46;96751.02;105629;1251;97464;-78
2023/03/13 08:04:44;;;;;;;;;;;;;;;8.85;61.97;96739.48;105048;1259;110936;-75
2023/03/13 08:07:12;;;;;;;;;;;;;;;8.96;61.90;96735.48;105225;1256;101775;-78
2023/03/13 08:09:40;;;;;;;;;;;;;;;9.16;61.69;96727.39;105428;1255;100589;-76
2023/03/13 08:12:09;;;;;;;;;;;;;;;9.37;61.40;96716.11;105138;1257;96778;-78
2023/03/13 08:14:37;;;;;;;;;;;;;;;9.59;61.02;96714.16;105178;1251;96699;-77
2023/03/13 08:17:05;;;;;;;;;;;;;;;9.85;60.78;96719.13;105303;1266;102678;-77
2023/03/13 08:19:33;;;;;;;;;;;;;;;10.10;60.34;96715.09;105460;1257;100001;-76
2023/03/13 08:22:02;;;;;;;;;;;;;;;10.29;59.78;96713.60;105266;1270;100458;-75
2023/03/13 08:24:30;;;;;;;;;;;;;;;10.53;59.62;96713.54;105143;1254;96727;-76
2023/03/13 08:26:58;;;;;;;;;;;;;;;10.68;58.94;96711.15;105245;1256;98378;-75
2023/03/13 08:29:26;;;;;;;;;;;;;;;10.81;58.35;96715.83;105065;1251;101718;-75
2023/03/13 08:31:54;;;;;;;;;;;;;;;10.82;57.77;96709.67;105205;1251;100288;-75
2023/03/13 08:34:22;;;;;;;;;;;;;;;10.82;57.62;96703.69;105210;1255;100772;-75
2023/03/13 08:36:51;;;;;;;;;;;;;;;10.94;57.63;96711.57;105094;1256;97349;-79
2023/03/13 08:39:20;;;;;;;;;;;;;;;11.06;57.24;96718.65;105144;1255;98415;-75
2023/03/13 08:41:48;;;;;;;;;;;;;;;11.04;56.35;96714.73;105172;1254;102746;-75
2023/03/13 08:44:17;;;;;;;;;;;;;;;11.02;56.37;96709.73;105174;1254;101866;-76
2023/03/13 08:46:46;;;;;;;;;;;;;;;11.17;56.53;96706.86;105128;1256;100458;-75
2023/03/13 08:49:16;;;;;;;;;;;;;;;11.32;56.18;96704.48;105151;1256;97851;-75
2023/03/13 08:51:44;;;;;;;;;;;;;;;11.39;55.74;96696.22;105357;1251;96791;-76
2023/03/13 08:54:12;;;;;;;;;;;;;;;11.46;55.80;96704.02;105347;1251;111168;-75
2023/03/13 08:56:42;;;;;;;;;;;;;;;11.60;55.65;96700.02;105268;1257;101810;-74
2023/03/13 08:59:11;;;;;;;;;;;;;;;11.73;55.21;96694.27;104896;1251;98863;-75
2023/03/13 09:01:39;;;;;;;;;;;;;;;11.77;54.97;96695.80;105158;1256;97480;-76
2023/03/13 09:04:07;;;;;;;;;;;;;;;11.87;55.03;96685.79;105123;1257;97896;-77
2023/03/13 09:06:36;;;;;;;;;;;;;;;11.85;54.19;96671.98;105175;1255;102430;-76
2023/03/13 09:09:05;;;;;;;;;;;;;;;11.85;54.07;96672.29;105034;1251;100342;-76
2023/03/13 09:11:35;;;;;;;;;;;;;;;11.83;53.80;96665.10;105238;1254;100785;-78
2023/03/13 09:14:03;;;;;;;;;;;;;;;11.81;54.04;96655.59;105240;1266;97362;-76
2023/03/13 09:16:31;;;;;;;;;;;;;;;11.89;53.83;96653.39;105250;1255;96840;-77
2023/03/13 09:19:00;;;;;;;;;;;;;;;11.96;53.53;96645.59;105349;1251;102608;-78
2023/03/13 09:21:29;;;;;;;;;;;;;;;12.07;53.37;96641.00;105245;1253;102209;-76
2023/03/13 09:23:58;;;;;;;;;;;;;;;12.20;53.35;96643.20;105367;1255;100081;-77
2023/03/13 09:26:26;;;;;;;;;;;;;;;12.39;53.28;96638.66;105402;1255;96651;-76
2023/03/13 09:28:55;;;;;;;;;;;;;;;12.59;52.98;96638.98;105179;1257;97857;-76
2023/03/13 09:31:25;;;;;;;;;;;;;;;12.83;52.97;96633.63;105145;1256;103046;-76
2023/03/13 09:33:53;;;;;;;;;;;;;;;13.13;52.89;96626.68;105270;1256;101427;-76
2023/03/13 09:36:22;;;;;;;;;;;;;;;13.41;52.63;96634.19;105007;1257;110070;-76
2023/03/13 09:38:53;;;;;;;;;;;;;;;13.54;52.28;96633.73;105229;1251;96813;-77
2023/03/13 09:41:24;;;;;;;;;;;;;;;13.68;51.84;96623.56;105157;1260;96616;-77
2023/03/13 09:44:11;;;;;;;;;;;;;;;13.59;50.46;96623.49;105116;1254;102820;-76
2023/03/13 09:46:40;;;;;;;;;;;;;;;13.57;50.56;96619.55;105212;1253;101886;-76
2023/03/13 09:49:37;;;;;;;;;;;;;;;13.72;50.56;96615.48;105160;1256;100183;-76
2023/03/13 09:52:05;;;;;;;;;;;;;;;13.81;49.72;96619.52;104573;1264;97936;-78
2023/03/13 09:54:39;;;;;;;;;;;;;;;13.86;49.86;96630.17;104549;1264;96662;-77
2023/03/13 09:57:15;;;;;;;;;;;;;;;13.85;49.11;96631.48;104605;1263;103079;-76
2023/03/13 09:59:47;;;;;;;;;;;;;;;13.88;49.42;96622.60;104598;1274;102481;-76
2023/03/13 10:02:33;;;;;;;;;;;;;;;13.99;49.28;96623.61;104441;1259;99426;-76
2023/03/13 10:05:14;;;;;;;;;;;;;;;14.06;47.93;96622.67;104689;1265;96828;-76
2023/03/13 10:07:42;;;;;;;;;;;;;;;13.95;47.22;96614.11;104655;1259;97304;-77
2023/03/13 10:10:21;;;;;;;;;;;;;;;13.91;47.68;96616.99;104650;1281;111178;-80
2023/03/13 10:12:52;;;;;;;;;;;;;;;14.02;47.55;96621.64;104532;1263;101776;-77
2023/03/13 10:15:43;;;;;;;;;;;;;;;14.09;47.42;96603.50;104539;1264;100495;-76
2023/03/13 10:18:22;;;;;;;;;;;;;;;14.22;47.77;96598.60;104327;1268;98623;-78
2023/03/13 10:20:52;;;;;;;;;;;;;;;14.27;47.61;96591.05;103954;1270;96958;-77
2023/03/13 10:23:26;;;;;;;;;;;;;;;14.30;47.38;96591.20;104262;1264;102604;-77
2023/03/13 10:25:54;;;;;;;;;;;;;;;14.31;46.45;96597.95;104182;1266;101633;-76
2023/03/13 10:28:22;;;;;;;;;;;;;;;14.31;46.43;96589.65;104310;1268;100337;-76
2023/03/13 10:30:53;;;;;;;;;;;;;;;14.42;46.28;96585.59;104924;1263;96649;-76
2023/03/13 10:33:26;;;;;;;;;;;;;;;14.65;46.54;96584.54;104705;1263;96636;-78
2023/03/13 10:36:08;;;;;;;;;;;;;;;14.97;46.32;96585.91;104924;1259;102592;-77
2023/03/13 10:38:48;;;;;;;;;;;;;;;15.25;46.29;96594.03;104880;1263;102360;-80
2023/03/13 10:41:29;;;;;;;;;;;;;;;15.34;45.02;96589.25;104930;1270;100484;-78
2023/03/13 10:44:03;;;;;;;;;;;;;;;15.38;45.20;96581.61;104670;1262;97913;-77
2023/03/13 10:46:34;;;;;;;;;;;;;;;15.58;45.26;96577.74;104809;1262;97468;-77
2023/03/13 10:49:04;;;;;;;;;;;;;;;15.71;44.57;96574.23;104794;1262;101342;-76
2023/03/13 10:51:38;;;;;;;;;;;;;;;15.86;44.45;96563.58;104657;1260;101852;-77
2023/03/13 10:54:22;;;;;;;;;;;;;;;16.09;44.37;96571.15;104694;1263;100515;-77
2023/03/13 10:56:50;;;;;;;;;;;;;;;16.18;42.83;96571.13;105120;1264;97855;-79
2023/03/13 10:59:26;;;;;;;;;;;;;;;16.09;42.52;96550.08;105203;1251;97741;-74
2023/03/13 11:01:59;;;;;;;;;;;;;;;16.13;43.30;96544.04;105314;1257;102934;-76
2023/03/13 11:04:36;;;;;;;;;;;;;;;16.15;42.62;96540.13;105363;1256;102321;-76
2023/03/13 11:07:05;;;;;;;;;;;;;;;15.90;42.70;96523.65;105339;1256;99444;-75
2023/03/13 11:09:33;;;;;;;;;;;;;;;15.67;42.65;96525.17;105220;1255;97231;-76
2023/03/13 11:12:03;;;;;;;;;;;;;;;15.31;42.52;96523.37;105427;1257;97884;-77
2023/03/13 11:14:31;;;;;;;;;;;;;;;15.13;42.97;96526.13;105340;1266;101178;-77
2023/03/13 11:16:59;;;;;;;;;;;;;;;14.98;42.26;96529.56;105011;1257;101760;-76
2023/03/13 11:19:50;;;;;;;;;;;;;;;14.82;42.12;96529.39;105072;1251;100223;-75
2023/03/13 11:22:30;;;;;;;;;;;;;;;14.79;42.23;96526.16;105319;1257;96663;-76
2023/03/13 11:25:13;;;;;;;;;;;;;;;14.66;42.43;96529.25;105168;1266;97467;-76
2023/03/13 11:27:41;;;;;;;;;;;;;;;14.51;42.64;96525.32;105215;1272;102569;-78
2023/03/13 11:30:21;;;;;;;;;;;;;;;14.45;42.68;96529.55;105224;1266;102131;-77
2023/03/13 11:32:55;;;;;;;;;;;;;;;14.29;42.57;96528.27;105226;1251;100436;-76
2023/03/13 11:35:42;;;;;;;;;;;;;;;14.19;42.75;96522.24;105279;1252;96798;-75
2023/03/13 11:38:20;;;;;;;;;;;;;;;14.16;42.64;96521.29;105421;1251;97763;-75
2023/03/13 11:40:48;;;;;;;;;;;;;;;14.03;42.12;96510.62;105407;1251;102628;-77
2023/03/13 11:43:35;;;;;;;;;;;;;;;13.87;42.51;96502.85;105441;1257;101804;-75
2023/03/13 11:46:03;;;;;;;;;;;;;;;13.84;43.03;96496.63;105129;1255;99533;-75
2023/03/13 11:48:34;;;;;;;;;;;;;;;13.82;43.09;96494.86;104920;1254;96858;-75
2023/03/13 11:51:25;;;;;;;;;;;;;;;13.73;42.89;96484.30;105154;1257;97787;-78
2023/03/13 11:53:55;;;;;;;;;;;;;;;13.69;42.71;96485.81;104574;1262;102779;-75
2023/03/13 11:57:02;;;;;;;;;;;;;;;13.69;42.37;96481.47;104430;1265;102311;-77
2023/03/13 11:59:49;;;;;;;;;;;;;;;13.82;42.91;96475.83;104221;1267;100261;-76
2023/03/13 12:02:23;;;;;;;;;;;;;;;14.09;43.08;96469.82;104290;1266;97224;-76
2023/03/13 12:05:11;;;;;;;;;;;;;;;14.36;42.58;96478.02;103994;1271;97098;-76
2023/03/13 12:08:02;;;;;;;;;;;;;;;14.40;42.10;96462.22;104251;1266;102594;-76
2023/03/13 12:10:33;;;;;;;;;;;;;;;14.42;42.51;96457.52;103915;1271;102160;-75
2023/03/13 12:13:06;;;;;;;;;;;;;;;14.46;42.60;96461.84;103721;1277;100685;-76
2023/03/13 12:16:03;;;;;;;;;;;;;;;14.32;42.07;96448.50;104036;1274;97681;-76
2023/03/13 12:18:34;;;;;;;;;;;;;;;14.18;42.50;96446.58;103666;1274;96661;-75
2023/03/13 12:21:02;;;;;;;;;;;;;;;14.14;42.70;96445.33;103591;1280;102487;-75
2023/03/13 12:23:39;;;;;;;;;;;;;;;14.01;42.27;96443.10;103685;1280;102042;-76
2023/03/13 12:26:10;;;;;;;;;;;;;;;13.84;42.32;96440.37;103561;1280;100485;-75
2023/03/13 12:28:57;;;;;;;;;;;;;;;13.70;42.38;96444.66;103631;1280;97387;-75
2023/03/13 12:31:27;;;;;;;;;;;;;;;13.55;42.53;96443.63;104043;1269;97418;-76
2023/03/13 12:34:14;;;;;;;;;;;;;;;13.44;42.82;96440.45;104253;1268;102667;-77
2023/03/13 12:37:00;;;;;;;;;;;;;;;13.35;42.76;96431.29;104347;1267;100144;-76
2023/03/13 12:39:43;;;;;;;;;;;;;;;13.26;42.99;96431.13;104246;1268;100268;-75
2023/03/13 12:42:32;;;;;;;;;;;;;;;13.22;43.06;96421.64;104413;1268;97852;-77
2023/03/13 12:45:00;;;;;;;;;;;;;;;13.20;43.09;96418.31;104379;1266;97584;-75
2023/03/13 12:47:45;;;;;;;;;;;;;;;13.20;43.28;96418.73;104581;1268;102750;-75
2023/03/13 12:50:19;;;;;;;;;;;;;;;13.19;43.29;96412.66;104998;1257;101826;-75
2023/03/13 12:52:56;;;;;;;;;;;;;;;13.17;43.05;96405.85;105020;1260;100442;-76
2023/03/13 12:55:39;;;;;;;;;;;;;;;13.14;42.30;96413.56;105190;1257;96833;-77
2023/03/13 12:58:17;;;;;;;;;;;;;;;13.06;41.80;96405.20;105354;1257;97468;-77